sensor_id;sensor_type;location;lat;lon;timestamp;temperature;humidity
61398;DHT22;47267;48.130;-2.040;2022-09-09T00:04:13;22.40;59.70
61398;DHT22;47267;48.130;-2.040;2022-09-09T00:09:34;22.40;59.70
61398;DHT22;47267;48.130;-2.040;2022-09-09T00:15:17;22.40;59.70
61398;DHT22;47267;48.130;-2.040;2022-09-09T00:18:07;22.40;59.70
61398;DHT22;47267;48.130;-2.040;2022-09-09T00:20:38;22.40;59.70
61398;DHT22;47267;48.130;-2.040;2022-09-09T00:23:20;22.40;59.70
61398;DHT22;47267;48.130;-2.040;2022-09-09T00:25:54;22.30;59.60
61398;DHT22;47267;48.130;-2.040;2022-09-09T00:28:26;22.30;59.70
61398;DHT22;47267;48.130;-2.040;2022-09-09T00:30:53;22.30;59.70
61398;DHT22;47267;48.130;-2.040;2022-09-09T00:33:23;22.30;59.70
61398;DHT22;47267;48.130;-2.040;2022-09-09T00:35:52;22.30;59.60
61398;DHT22;47267;48.130;-2.040;2022-09-09T00:38:28;22.30;59.70
61398;DHT22;47267;48.130;-2.040;2022-09-09T00:41:21;22.30;59.60
61398;DHT22;47267;48.130;-2.040;2022-09-09T00:55:26;22.20;59.70
61398;DHT22;47267;48.130;-2.040;2022-09-09T00:57:50;22.20;59.60
61398;DHT22;47267;48.130;-2.040;2022-09-09T01:00:56;22.20;59.70
61398;DHT22;47267;48.130;-2.040;2022-09-09T01:03:35;22.20;59.60
61398;DHT22;47267;48.130;-2.040;2022-09-09T01:11:25;22.20;59.70
61398;DHT22;47267;48.130;-2.040;2022-09-09T01:14:22;22.20;59.70
61398;DHT22;47267;48.130;-2.040;2022-09-09T01:16:56;22.20;59.70
61398;DHT22;47267;48.130;-2.040;2022-09-09T01:27:19;22.20;59.70
61398;DHT22;47267;48.130;-2.040;2022-09-09T01:29:46;22.20;59.70
61398;DHT22;47267;48.130;-2.040;2022-09-09T01:32:44;22.10;59.70
61398;DHT22;47267;48.130;-2.040;2022-09-09T01:35:55;22.10;59.70
61398;DHT22;47267;48.130;-2.040;2022-09-09T01:38:01;22.10;59.60
61398;DHT22;47267;48.130;-2.040;2022-09-09T01:40:26;22.10;59.70
61398;DHT22;47267;48.130;-2.040;2022-09-09T01:42:53;22.10;59.70
61398;DHT22;47267;48.130;-2.040;2022-09-09T01:45:20;22.10;59.70
61398;DHT22;47267;48.130;-2.040;2022-09-09T01:47:46;22.10;59.70
61398;DHT22;47267;48.130;-2.040;2022-09-09T01:50:15;22.10;59.70
61398;DHT22;47267;48.130;-2.040;2022-09-09T01:52:44;22.10;59.70
61398;DHT22;47267;48.130;-2.040;2022-09-09T01:55:11;22.10;59.70
61398;DHT22;47267;48.130;-2.040;2022-09-09T01:57:56;22.10;59.70
61398;DHT22;47267;48.130;-2.040;2022-09-09T02:00:27;22.00;59.70
61398;DHT22;47267;48.130;-2.040;2022-09-09T02:03:07;22.10;59.70
61398;DHT22;47267;48.130;-2.040;2022-09-09T02:05:36;22.00;59.70
61398;DHT22;47267;48.130;-2.040;2022-09-09T02:08:23;22.00;59.70
61398;DHT22;47267;48.130;-2.040;2022-09-09T02:11:07;22.00;59.70
61398;DHT22;47267;48.130;-2.040;2022-09-09T02:13:36;22.00;59.70
61398;DHT22;47267;48.130;-2.040;2022-09-09T02:16:08;22.00;59.70
61398;DHT22;47267;48.130;-2.040;2022-09-09T02:19:06;22.00;59.70
61398;DHT22;47267;48.130;-2.040;2022-09-09T02:21:30;22.00;59.70
61398;DHT22;47267;48.130;-2.040;2022-09-09T02:23:59;22.00;59.70
61398;DHT22;47267;48.130;-2.040;2022-09-09T02:26:29;22.00;59.70
61398;DHT22;47267;48.130;-2.040;2022-09-09T02:28:57;22.00;59.70
61398;DHT22;47267;48.130;-2.040;2022-09-09T02:31:24;22.00;59.70
61398;DHT22;47267;48.130;-2.040;2022-09-09T02:33:55;22.00;59.80
61398;DHT22;47267;48.130;-2.040;2022-09-09T02:36:24;22.00;59.70
61398;DHT22;47267;48.130;-2.040;2022-09-09T02:38:55;22.00;59.70
61398;DHT22;47267;48.130;-2.040;2022-09-09T02:41:28;21.90;59.70
61398;DHT22;47267;48.130;-2.040;2022-09-09T02:43:56;21.90;59.70
61398;DHT22;47267;48.130;-2.040;2022-09-09T02:52:07;21.90;59.70
61398;DHT22;47267;48.130;-2.040;2022-09-09T02:54:34;21.90;59.70
61398;DHT22;47267;48.130;-2.040;2022-09-09T02:57:12;21.90;59.70
61398;DHT22;47267;48.130;-2.040;2022-09-09T02:59:43;21.90;59.70
61398;DHT22;47267;48.130;-2.040;2022-09-09T03:02:10;21.90;59.70
61398;DHT22;47267;48.130;-2.040;2022-09-09T03:04:37;21.90;59.70
61398;DHT22;47267;48.130;-2.040;2022-09-09T03:07:03;21.90;59.70
61398;DHT22;47267;48.130;-2.040;2022-09-09T03:09:29;21.90;59.70
61398;DHT22;47267;48.130;-2.040;2022-09-09T03:11:55;21.90;59.70
61398;DHT22;47267;48.130;-2.040;2022-09-09T03:14:22;21.90;59.80
61398;DHT22;47267;48.130;-2.040;2022-09-09T03:16:51;21.90;59.70
61398;DHT22;47267;48.130;-2.040;2022-09-09T03:19:16;21.80;59.70
61398;DHT22;47267;48.130;-2.040;2022-09-09T03:21:44;21.90;59.70
61398;DHT22;47267;48.130;-2.040;2022-09-09T03:24:10;21.90;59.80
61398;DHT22;47267;48.130;-2.040;2022-09-09T03:26:36;21.80;59.70
61398;DHT22;47267;48.130;-2.040;2022-09-09T03:29:04;21.80;59.70
61398;DHT22;47267;48.130;-2.040;2022-09-09T03:31:35;21.80;59.70
61398;DHT22;47267;48.130;-2.040;2022-09-09T03:34:02;21.80;59.70
61398;DHT22;47267;48.130;-2.040;2022-09-09T03:36:28;21.80;59.70
61398;DHT22;47267;48.130;-2.040;2022-09-09T03:38:55;21.80;59.70
61398;DHT22;47267;48.130;-2.040;2022-09-09T03:41:22;21.80;59.70
61398;DHT22;47267;48.130;-2.040;2022-09-09T03:43:50;21.80;59.70
61398;DHT22;47267;48.130;-2.040;2022-09-09T03:46:17;21.80;59.70
61398;DHT22;47267;48.130;-2.040;2022-09-09T03:48:43;21.80;59.70
61398;DHT22;47267;48.130;-2.040;2022-09-09T03:51:09;21.80;59.70
61398;DHT22;47267;48.130;-2.040;2022-09-09T03:53:36;21.80;59.70
61398;DHT22;47267;48.130;-2.040;2022-09-09T03:56:04;21.80;59.80
61398;DHT22;47267;48.130;-2.040;2022-09-09T03:58:32;21.70;59.70
61398;DHT22;47267;48.130;-2.040;2022-09-09T04:01:01;21.80;59.70
61398;DHT22;47267;48.130;-2.040;2022-09-09T04:03:27;21.70;59.70
61398;DHT22;47267;48.130;-2.040;2022-09-09T04:05:54;21.80;59.70
61398;DHT22;47267;48.130;-2.040;2022-09-09T04:08:21;21.80;59.70
61398;DHT22;47267;48.130;-2.040;2022-09-09T04:10:48;21.70;59.70
61398;DHT22;47267;48.130;-2.040;2022-09-09T04:13:15;21.70;59.70
61398;DHT22;47267;48.130;-2.040;2022-09-09T04:15:43;21.70;59.70
61398;DHT22;47267;48.130;-2.040;2022-09-09T04:18:09;21.70;59.70
61398;DHT22;47267;48.130;-2.040;2022-09-09T04:20:35;21.70;59.70
61398;DHT22;47267;48.130;-2.040;2022-09-09T04:23:01;21.70;59.70
61398;DHT22;47267;48.130;-2.040;2022-09-09T04:25:27;21.70;59.70
61398;DHT22;47267;48.130;-2.040;2022-09-09T04:27:56;21.70;59.70
61398;DHT22;47267;48.130;-2.040;2022-09-09T04:30:23;21.70;59.70
61398;DHT22;47267;48.130;-2.040;2022-09-09T04:32:49;21.70;59.70
61398;DHT22;47267;48.130;-2.040;2022-09-09T04:35:15;21.70;59.70
61398;DHT22;47267;48.130;-2.040;2022-09-09T04:37:41;21.70;59.80
61398;DHT22;47267;48.130;-2.040;2022-09-09T04:40:07;21.70;59.80
61398;DHT22;47267;48.130;-2.040;2022-09-09T04:42:39;21.70;59.80
61398;DHT22;47267;48.130;-2.040;2022-09-09T04:45:05;21.70;59.80
61398;DHT22;47267;48.130;-2.040;2022-09-09T04:47:33;21.70;59.80
61398;DHT22;47267;48.130;-2.040;2022-09-09T04:50:01;21.60;59.70
61398;DHT22;47267;48.130;-2.040;2022-09-09T04:52:26;21.70;59.80
61398;DHT22;47267;48.130;-2.040;2022-09-09T04:54:52;21.70;59.80
61398;DHT22;47267;48.130;-2.040;2022-09-09T04:57:19;21.70;59.80
61398;DHT22;47267;48.130;-2.040;2022-09-09T04:59:45;21.60;59.80
61398;DHT22;47267;48.130;-2.040;2022-09-09T05:02:11;21.60;59.80
61398;DHT22;47267;48.130;-2.040;2022-09-09T05:04:37;21.60;59.80
61398;DHT22;47267;48.130;-2.040;2022-09-09T05:07:03;21.60;59.80
61398;DHT22;47267;48.130;-2.040;2022-09-09T05:09:28;21.60;59.80
61398;DHT22;47267;48.130;-2.040;2022-09-09T05:11:55;21.60;59.80
61398;DHT22;47267;48.130;-2.040;2022-09-09T05:14:21;21.60;59.80
61398;DHT22;47267;48.130;-2.040;2022-09-09T05:16:48;21.60;59.80
61398;DHT22;47267;48.130;-2.040;2022-09-09T05:19:15;21.60;59.80
61398;DHT22;47267;48.130;-2.040;2022-09-09T05:21:41;21.60;59.80
61398;DHT22;47267;48.130;-2.040;2022-09-09T05:24:07;21.60;59.80
61398;DHT22;47267;48.130;-2.040;2022-09-09T05:26:32;21.60;59.80
61398;DHT22;47267;48.130;-2.040;2022-09-09T05:28:58;21.60;59.80
61398;DHT22;47267;48.130;-2.040;2022-09-09T05:31:26;21.50;59.70
61398;DHT22;47267;48.130;-2.040;2022-09-09T05:33:54;21.50;59.80
61398;DHT22;47267;48.130;-2.040;2022-09-09T05:36:21;21.60;59.80
61398;DHT22;47267;48.130;-2.040;2022-09-09T05:38:47;21.60;59.80
61398;DHT22;47267;48.130;-2.040;2022-09-09T05:41:15;21.60;59.80
61398;DHT22;47267;48.130;-2.040;2022-09-09T05:43:42;21.60;59.90
61398;DHT22;47267;48.130;-2.040;2022-09-09T05:46:27;21.60;59.80
61398;DHT22;47267;48.130;-2.040;2022-09-09T05:48:53;21.60;59.90
61398;DHT22;47267;48.130;-2.040;2022-09-09T05:51:21;21.50;59.80
61398;DHT22;47267;48.130;-2.040;2022-09-09T05:53:48;21.50;59.80
61398;DHT22;47267;48.130;-2.040;2022-09-09T05:56:16;21.50;59.90
61398;DHT22;47267;48.130;-2.040;2022-09-09T05:58:45;21.50;59.90
61398;DHT22;47267;48.130;-2.040;2022-09-09T06:01:16;21.50;59.90
61398;DHT22;47267;48.130;-2.040;2022-09-09T06:03:43;21.50;59.90
61398;DHT22;47267;48.130;-2.040;2022-09-09T06:06:12;21.50;59.90
61398;DHT22;47267;48.130;-2.040;2022-09-09T06:08:40;21.50;59.90
61398;DHT22;47267;48.130;-2.040;2022-09-09T06:11:07;21.50;59.90
61398;DHT22;47267;48.130;-2.040;2022-09-09T06:13:34;21.50;59.90
61398;DHT22;47267;48.130;-2.040;2022-09-09T06:16:00;21.50;60.00
61398;DHT22;47267;48.130;-2.040;2022-09-09T06:18:26;21.50;60.00
61398;DHT22;47267;48.130;-2.040;2022-09-09T06:21:00;21.50;60.00
61398;DHT22;47267;48.130;-2.040;2022-09-09T06:23:27;21.50;60.00
61398;DHT22;47267;48.130;-2.040;2022-09-09T06:26:03;21.50;60.30
61398;DHT22;47267;48.130;-2.040;2022-09-09T06:28:34;21.50;60.50
61398;DHT22;47267;48.130;-2.040;2022-09-09T06:31:01;21.50;60.80
61398;DHT22;47267;48.130;-2.040;2022-09-09T06:33:31;21.60;61.50
61398;DHT22;47267;48.130;-2.040;2022-09-09T06:35:57;21.60;61.30
61398;DHT22;47267;48.130;-2.040;2022-09-09T06:38:23;21.60;61.10
61398;DHT22;47267;48.130;-2.040;2022-09-09T06:40:53;21.60;61.60
61398;DHT22;47267;48.130;-2.040;2022-09-09T06:43:21;21.60;62.10
61398;DHT22;47267;48.130;-2.040;2022-09-09T06:48:27;21.70;62.40
61398;DHT22;47267;48.130;-2.040;2022-09-09T06:51:17;21.80;62.60
61398;DHT22;47267;48.130;-2.040;2022-09-09T06:53:44;21.90;62.60
61398;DHT22;47267;48.130;-2.040;2022-09-09T06:58:40;21.90;62.70
61398;DHT22;47267;48.130;-2.040;2022-09-09T07:01:14;22.00;62.60
61398;DHT22;47267;48.130;-2.040;2022-09-09T07:03:41;22.00;62.60
61398;DHT22;47267;48.130;-2.040;2022-09-09T07:08:39;22.10;62.60
61398;DHT22;47267;48.130;-2.040;2022-09-09T07:11:07;22.20;62.60
61398;DHT22;47267;48.130;-2.040;2022-09-09T07:13:33;22.20;62.50
61398;DHT22;47267;48.130;-2.040;2022-09-09T07:16:09;22.30;62.50
61398;DHT22;47267;48.130;-2.040;2022-09-09T07:18:35;22.30;62.40
61398;DHT22;47267;48.130;-2.040;2022-09-09T07:21:02;22.40;62.40
61398;DHT22;47267;48.130;-2.040;2022-09-09T07:23:29;22.40;62.30
61398;DHT22;47267;48.130;-2.040;2022-09-09T07:25:58;22.40;62.30
61398;DHT22;47267;48.130;-2.040;2022-09-09T07:28:25;22.50;62.30
61398;DHT22;47267;48.130;-2.040;2022-09-09T07:30:58;22.60;62.20
61398;DHT22;47267;48.130;-2.040;2022-09-09T07:33:25;22.60;62.10
61398;DHT22;47267;48.130;-2.040;2022-09-09T07:35:52;22.60;62.00
61398;DHT22;47267;48.130;-2.040;2022-09-09T07:38:19;22.70;62.00
61398;DHT22;47267;48.130;-2.040;2022-09-09T07:40:45;22.70;62.00
61398;DHT22;47267;48.130;-2.040;2022-09-09T07:43:12;22.70;61.90
61398;DHT22;47267;48.130;-2.040;2022-09-09T07:45:38;22.80;61.90
61398;DHT22;47267;48.130;-2.040;2022-09-09T07:48:04;22.80;61.90
61398;DHT22;47267;48.130;-2.040;2022-09-09T07:50:31;22.80;61.80
61398;DHT22;47267;48.130;-2.040;2022-09-09T07:52:56;22.90;61.80
61398;DHT22;47267;48.130;-2.040;2022-09-09T07:55:22;22.90;61.80
61398;DHT22;47267;48.130;-2.040;2022-09-09T07:57:53;23.00;61.80
61398;DHT22;47267;48.130;-2.040;2022-09-09T08:00:19;23.00;61.70
61398;DHT22;47267;48.130;-2.040;2022-09-09T08:02:47;23.00;61.60
61398;DHT22;47267;48.130;-2.040;2022-09-09T08:05:13;23.00;61.60
61398;DHT22;47267;48.130;-2.040;2022-09-09T08:07:39;23.10;61.60
61398;DHT22;47267;48.130;-2.040;2022-09-09T08:10:05;23.10;61.60
61398;DHT22;47267;48.130;-2.040;2022-09-09T08:12:31;23.20;61.60
61398;DHT22;47267;48.130;-2.040;2022-09-09T08:14:57;23.10;61.10
61398;DHT22;47267;48.130;-2.040;2022-09-09T08:17:23;23.10;60.90
61398;DHT22;47267;48.130;-2.040;2022-09-09T08:19:50;23.10;60.80
61398;DHT22;47267;48.130;-2.040;2022-09-09T08:22:17;23.00;60.70
61398;DHT22;47267;48.130;-2.040;2022-09-09T08:24:42;23.00;60.60
61398;DHT22;47267;48.130;-2.040;2022-09-09T08:27:08;23.00;60.40
61398;DHT22;47267;48.130;-2.040;2022-09-09T08:29:35;23.00;60.50
61398;DHT22;47267;48.130;-2.040;2022-09-09T08:32:03;23.00;60.40
61398;DHT22;47267;48.130;-2.040;2022-09-09T08:34:29;23.00;60.40
61398;DHT22;47267;48.130;-2.040;2022-09-09T08:36:56;22.90;60.30
61398;DHT22;47267;48.130;-2.040;2022-09-09T08:39:22;22.90;60.20
61398;DHT22;47267;48.130;-2.040;2022-09-09T08:44:31;22.90;60.30
61398;DHT22;47267;48.130;-2.040;2022-09-09T08:52:30;22.90;60.30
61398;DHT22;47267;48.130;-2.040;2022-09-09T08:55:05;22.90;60.30
61398;DHT22;47267;48.130;-2.040;2022-09-09T08:57:38;22.90;60.30
61398;DHT22;47267;48.130;-2.040;2022-09-09T09:00:07;22.80;60.20
61398;DHT22;47267;48.130;-2.040;2022-09-09T09:06:06;22.80;60.20
61398;DHT22;47267;48.130;-2.040;2022-09-09T09:11:40;22.80;60.20
61398;DHT22;47267;48.130;-2.040;2022-09-09T09:17:04;22.70;60.10
61398;DHT22;47267;48.130;-2.040;2022-09-09T09:19:35;22.70;60.10
61398;DHT22;47267;48.130;-2.040;2022-09-09T09:22:26;22.80;60.20
61398;DHT22;47267;48.130;-2.040;2022-09-09T09:27:35;22.70;60.20
61398;DHT22;47267;48.130;-2.040;2022-09-09T09:30:16;22.70;60.10
61398;DHT22;47267;48.130;-2.040;2022-09-09T09:32:44;22.70;60.20
61398;DHT22;47267;48.130;-2.040;2022-09-09T09:35:13;22.70;60.20
61398;DHT22;47267;48.130;-2.040;2022-09-09T09:37:40;22.70;60.20
61398;DHT22;47267;48.130;-2.040;2022-09-09T09:40:17;22.70;60.20
61398;DHT22;47267;48.130;-2.040;2022-09-09T09:42:53;22.70;60.10
61398;DHT22;47267;48.130;-2.040;2022-09-09T09:45:34;22.60;60.20
61398;DHT22;47267;48.130;-2.040;2022-09-09T09:48:09;22.70;60.20
61398;DHT22;47267;48.130;-2.040;2022-09-09T09:55:56;22.60;60.20
61398;DHT22;47267;48.130;-2.040;2022-09-09T09:58:24;22.60;60.20
61398;DHT22;47267;48.130;-2.040;2022-09-09T10:00:52;22.60;60.10
61398;DHT22;47267;48.130;-2.040;2022-09-09T10:03:30;22.60;60.10
61398;DHT22;47267;48.130;-2.040;2022-09-09T10:05:56;22.60;60.10
61398;DHT22;47267;48.130;-2.040;2022-09-09T10:08:26;22.60;60.10
61398;DHT22;47267;48.130;-2.040;2022-09-09T10:14:12;22.60;60.20
61398;DHT22;47267;48.130;-2.040;2022-09-09T10:19:16;22.60;60.10
61398;DHT22;47267;48.130;-2.040;2022-09-09T10:27:38;22.60;60.20
61398;DHT22;47267;48.130;-2.040;2022-09-09T10:33:10;22.50;60.10
61398;DHT22;47267;48.130;-2.040;2022-09-09T10:38:44;22.50;60.10
61398;DHT22;47267;48.130;-2.040;2022-09-09T10:44:22;22.60;60.20
61398;DHT22;47267;48.130;-2.040;2022-09-09T10:50:07;22.50;60.10
61398;DHT22;47267;48.130;-2.040;2022-09-09T10:52:39;22.50;60.10
61398;DHT22;47267;48.130;-2.040;2022-09-09T10:55:12;22.50;60.10
61398;DHT22;47267;48.130;-2.040;2022-09-09T10:57:53;22.50;60.10
61398;DHT22;47267;48.130;-2.040;2022-09-09T11:00:46;22.50;60.20
61398;DHT22;47267;48.130;-2.040;2022-09-09T11:03:23;22.50;60.10
61398;DHT22;47267;48.130;-2.040;2022-09-09T11:05:55;22.50;60.20
61398;DHT22;47267;48.130;-2.040;2022-09-09T11:08:27;22.50;60.20
61398;DHT22;47267;48.130;-2.040;2022-09-09T11:11:18;22.50;60.20
61398;DHT22;47267;48.130;-2.040;2022-09-09T11:14:07;22.50;60.20
61398;DHT22;47267;48.130;-2.040;2022-09-09T11:16:57;22.50;60.20
61398;DHT22;47267;48.130;-2.040;2022-09-09T11:19:38;22.50;60.20
61398;DHT22;47267;48.130;-2.040;2022-09-09T11:25:18;22.50;60.20
61398;DHT22;47267;48.130;-2.040;2022-09-09T11:30:16;22.50;60.20
61398;DHT22;47267;48.130;-2.040;2022-09-09T11:41:07;22.40;60.20
61398;DHT22;47267;48.130;-2.040;2022-09-09T11:43:52;22.40;60.20
61398;DHT22;47267;48.130;-2.040;2022-09-09T11:46:20;22.40;60.20
61398;DHT22;47267;48.130;-2.040;2022-09-09T11:49:00;22.40;60.30
61398;DHT22;47267;48.130;-2.040;2022-09-09T11:51:28;22.40;60.20
61398;DHT22;47267;48.130;-2.040;2022-09-09T11:53:59;22.40;60.20
61398;DHT22;47267;48.130;-2.040;2022-09-09T11:56:34;22.40;60.30
61398;DHT22;47267;48.130;-2.040;2022-09-09T11:59:26;22.40;60.20
61398;DHT22;47267;48.130;-2.040;2022-09-09T12:02:13;22.40;60.30
61398;DHT22;47267;48.130;-2.040;2022-09-09T12:05:10;22.40;60.30
61398;DHT22;47267;48.130;-2.040;2022-09-09T12:10:20;22.40;60.40
61398;DHT22;47267;48.130;-2.040;2022-09-09T12:12:47;22.40;60.30
61398;DHT22;47267;48.130;-2.040;2022-09-09T12:17:50;22.40;60.40
61398;DHT22;47267;48.130;-2.040;2022-09-09T12:20:23;22.40;60.30
61398;DHT22;47267;48.130;-2.040;2022-09-09T12:31:55;22.40;60.40
61398;DHT22;47267;48.130;-2.040;2022-09-09T12:33:48;22.40;60.50
61398;DHT22;47267;48.130;-2.040;2022-09-09T12:36:27;22.40;60.80
61398;DHT22;47267;48.130;-2.040;2022-09-09T12:38:57;22.40;60.60
61398;DHT22;47267;48.130;-2.040;2022-09-09T12:41:27;22.40;60.60
61398;DHT22;47267;48.130;-2.040;2022-09-09T12:44:10;22.50;60.60
61398;DHT22;47267;48.130;-2.040;2022-09-09T12:46:36;22.50;60.60
61398;DHT22;47267;48.130;-2.040;2022-09-09T12:49:03;22.50;60.60
61398;DHT22;47267;48.130;-2.040;2022-09-09T12:51:31;22.50;60.60
61398;DHT22;47267;48.130;-2.040;2022-09-09T12:53:58;22.50;60.60
61398;DHT22;47267;48.130;-2.040;2022-09-09T12:56:29;22.50;60.60
61398;DHT22;47267;48.130;-2.040;2022-09-09T12:58:57;22.50;60.60
61398;DHT22;47267;48.130;-2.040;2022-09-09T13:01:33;22.50;60.60
61398;DHT22;47267;48.130;-2.040;2022-09-09T13:03:59;22.50;60.60
61398;DHT22;47267;48.130;-2.040;2022-09-09T13:06:27;22.50;60.60
61398;DHT22;47267;48.130;-2.040;2022-09-09T13:08:58;22.50;60.70
61398;DHT22;47267;48.130;-2.040;2022-09-09T13:11:35;22.50;60.70
61398;DHT22;47267;48.130;-2.040;2022-09-09T13:14:02;22.50;60.70
61398;DHT22;47267;48.130;-2.040;2022-09-09T13:16:30;22.50;60.70
61398;DHT22;47267;48.130;-2.040;2022-09-09T13:19:10;22.50;60.70
61398;DHT22;47267;48.130;-2.040;2022-09-09T13:21:39;22.60;60.80
61398;DHT22;47267;48.130;-2.040;2022-09-09T13:24:21;22.60;61.20
61398;DHT22;47267;48.130;-2.040;2022-09-09T13:26:57;22.60;60.90
61398;DHT22;47267;48.130;-2.040;2022-09-09T13:29:23;22.60;60.80
61398;DHT22;47267;48.130;-2.040;2022-09-09T13:31:50;22.60;60.90
61398;DHT22;47267;48.130;-2.040;2022-09-09T13:34:32;22.60;60.90
61398;DHT22;47267;48.130;-2.040;2022-09-09T13:37:06;22.60;60.90
61398;DHT22;47267;48.130;-2.040;2022-09-09T13:39:34;22.60;60.90
61398;DHT22;47267;48.130;-2.040;2022-09-09T13:42:02;22.70;60.90
61398;DHT22;47267;48.130;-2.040;2022-09-09T13:44:38;22.60;60.90
61398;DHT22;47267;48.130;-2.040;2022-09-09T13:47:17;22.70;60.90
61398;DHT22;47267;48.130;-2.040;2022-09-09T13:49:44;22.60;60.90
61398;DHT22;47267;48.130;-2.040;2022-09-09T13:52:13;22.70;60.90
61398;DHT22;47267;48.130;-2.040;2022-09-09T13:54:40;22.70;60.90
61398;DHT22;47267;48.130;-2.040;2022-09-09T13:57:16;22.70;60.90
61398;DHT22;47267;48.130;-2.040;2022-09-09T13:59:48;22.70;60.90
61398;DHT22;47267;48.130;-2.040;2022-09-09T14:02:15;22.70;60.90
61398;DHT22;47267;48.130;-2.040;2022-09-09T14:04:44;22.70;60.90
61398;DHT22;47267;48.130;-2.040;2022-09-09T14:07:15;22.70;60.90
61398;DHT22;47267;48.130;-2.040;2022-09-09T14:09:48;22.70;60.90
61398;DHT22;47267;48.130;-2.040;2022-09-09T14:12:15;22.80;61.00
61398;DHT22;47267;48.130;-2.040;2022-09-09T14:14:42;22.80;61.00
61398;DHT22;47267;48.130;-2.040;2022-09-09T14:17:08;22.80;61.20
61398;DHT22;47267;48.130;-2.040;2022-09-09T14:19:34;22.80;61.00
61398;DHT22;47267;48.130;-2.040;2022-09-09T14:22:00;22.80;61.00
61398;DHT22;47267;48.130;-2.040;2022-09-09T14:24:27;22.80;61.00
61398;DHT22;47267;48.130;-2.040;2022-09-09T14:26:53;22.80;61.00
61398;DHT22;47267;48.130;-2.040;2022-09-09T14:29:19;22.80;61.00
61398;DHT22;47267;48.130;-2.040;2022-09-09T14:31:45;22.80;61.00
61398;DHT22;47267;48.130;-2.040;2022-09-09T14:34:11;22.80;61.00
61398;DHT22;47267;48.130;-2.040;2022-09-09T14:36:37;22.80;61.00
61398;DHT22;47267;48.130;-2.040;2022-09-09T14:39:04;22.80;61.10
61398;DHT22;47267;48.130;-2.040;2022-09-09T14:41:30;22.80;61.00
61398;DHT22;47267;48.130;-2.040;2022-09-09T14:43:55;22.80;60.90
61398;DHT22;47267;48.130;-2.040;2022-09-09T14:46:21;22.80;61.00
61398;DHT22;47267;48.130;-2.040;2022-09-09T14:48:48;22.80;61.00
61398;DHT22;47267;48.130;-2.040;2022-09-09T14:51:21;22.80;61.10
61398;DHT22;47267;48.130;-2.040;2022-09-09T14:53:54;22.80;61.10
61398;DHT22;47267;48.130;-2.040;2022-09-09T14:56:22;22.80;61.00
61398;DHT22;47267;48.130;-2.040;2022-09-09T14:58:56;22.90;61.10
61398;DHT22;47267;48.130;-2.040;2022-09-09T15:01:23;22.90;61.00
61398;DHT22;47267;48.130;-2.040;2022-09-09T15:03:57;22.90;61.10
61398;DHT22;47267;48.130;-2.040;2022-09-09T15:06:27;22.90;61.00
61398;DHT22;47267;48.130;-2.040;2022-09-09T15:08:54;22.90;61.00
61398;DHT22;47267;48.130;-2.040;2022-09-09T15:11:23;22.90;61.20
61398;DHT22;47267;48.130;-2.040;2022-09-09T15:13:51;22.90;61.20
61398;DHT22;47267;48.130;-2.040;2022-09-09T15:16:23;22.90;61.60
61398;DHT22;47267;48.130;-2.040;2022-09-09T15:18:52;23.00;61.70
61398;DHT22;47267;48.130;-2.040;2022-09-09T15:21:22;23.00;61.80
61398;DHT22;47267;48.130;-2.040;2022-09-09T15:23:48;23.00;62.00
61398;DHT22;47267;48.130;-2.040;2022-09-09T15:26:18;23.10;62.30
61398;DHT22;47267;48.130;-2.040;2022-09-09T15:28:45;23.10;62.20
61398;DHT22;47267;48.130;-2.040;2022-09-09T15:33:49;23.20;62.30
61398;DHT22;47267;48.130;-2.040;2022-09-09T15:36:21;23.20;62.30
61398;DHT22;47267;48.130;-2.040;2022-09-09T15:38:47;23.20;62.70
61398;DHT22;47267;48.130;-2.040;2022-09-09T15:41:14;23.30;63.00
61398;DHT22;47267;48.130;-2.040;2022-09-09T15:43:48;23.40;63.40
61398;DHT22;47267;48.130;-2.040;2022-09-09T15:48:46;23.40;63.80
61398;DHT22;47267;48.130;-2.040;2022-09-09T15:51:14;23.50;63.80
61398;DHT22;47267;48.130;-2.040;2022-09-09T15:53:40;23.50;63.00
61398;DHT22;47267;48.130;-2.040;2022-09-09T15:56:06;23.50;63.00
61398;DHT22;47267;48.130;-2.040;2022-09-09T15:58:33;23.50;62.80
61398;DHT22;47267;48.130;-2.040;2022-09-09T16:01:06;23.50;62.60
61398;DHT22;47267;48.130;-2.040;2022-09-09T16:03:36;23.60;62.40
61398;DHT22;47267;48.130;-2.040;2022-09-09T16:06:02;23.50;62.10
61398;DHT22;47267;48.130;-2.040;2022-09-09T16:08:34;23.50;61.50
61398;DHT22;47267;48.130;-2.040;2022-09-09T16:11:08;23.60;61.60
61398;DHT22;47267;48.130;-2.040;2022-09-09T16:13:38;23.60;61.30
61398;DHT22;47267;48.130;-2.040;2022-09-09T16:16:06;23.60;61.20
61398;DHT22;47267;48.130;-2.040;2022-09-09T16:18:40;23.60;61.20
61398;DHT22;47267;48.130;-2.040;2022-09-09T16:21:06;23.60;61.10
61398;DHT22;47267;48.130;-2.040;2022-09-09T16:23:34;23.60;61.10
61398;DHT22;47267;48.130;-2.040;2022-09-09T16:26:01;23.60;61.00
61398;DHT22;47267;48.130;-2.040;2022-09-09T16:28:27;23.70;61.10
61398;DHT22;47267;48.130;-2.040;2022-09-09T16:30:53;23.70;60.70
61398;DHT22;47267;48.130;-2.040;2022-09-09T16:33:19;23.70;60.70
61398;DHT22;47267;48.130;-2.040;2022-09-09T16:35:45;23.70;60.40
61398;DHT22;47267;48.130;-2.040;2022-09-09T16:38:11;23.70;60.40
61398;DHT22;47267;48.130;-2.040;2022-09-09T16:40:37;23.70;60.30
61398;DHT22;47267;48.130;-2.040;2022-09-09T16:43:04;23.70;60.20
61398;DHT22;47267;48.130;-2.040;2022-09-09T16:45:31;23.70;60.30
61398;DHT22;47267;48.130;-2.040;2022-09-09T16:47:58;23.70;60.50
61398;DHT22;47267;48.130;-2.040;2022-09-09T16:50:24;23.70;60.60
61398;DHT22;47267;48.130;-2.040;2022-09-09T16:52:51;23.70;60.50
61398;DHT22;47267;48.130;-2.040;2022-09-09T16:55:17;23.70;60.50
61398;DHT22;47267;48.130;-2.040;2022-09-09T16:57:46;23.70;60.50
61398;DHT22;47267;48.130;-2.040;2022-09-09T17:00:14;23.70;60.50
61398;DHT22;47267;48.130;-2.040;2022-09-09T17:02:44;23.60;60.50
61398;DHT22;47267;48.130;-2.040;2022-09-09T17:05:11;23.60;60.40
61398;DHT22;47267;48.130;-2.040;2022-09-09T17:07:38;23.60;60.40
61398;DHT22;47267;48.130;-2.040;2022-09-09T17:10:04;23.60;60.40
61398;DHT22;47267;48.130;-2.040;2022-09-09T17:12:31;23.60;60.40
61398;DHT22;47267;48.130;-2.040;2022-09-09T17:14:57;23.60;60.40
61398;DHT22;47267;48.130;-2.040;2022-09-09T17:17:25;23.60;60.40
61398;DHT22;47267;48.130;-2.040;2022-09-09T17:19:52;23.60;60.40
61398;DHT22;47267;48.130;-2.040;2022-09-09T17:22:18;23.50;60.30
61398;DHT22;47267;48.130;-2.040;2022-09-09T17:24:44;23.60;60.40
61398;DHT22;47267;48.130;-2.040;2022-09-09T17:27:11;23.60;60.40
61398;DHT22;47267;48.130;-2.040;2022-09-09T17:29:37;23.60;60.40
61398;DHT22;47267;48.130;-2.040;2022-09-09T17:32:03;23.50;60.30
61398;DHT22;47267;48.130;-2.040;2022-09-09T17:34:30;23.50;60.30
61398;DHT22;47267;48.130;-2.040;2022-09-09T17:36:56;23.50;60.40
61398;DHT22;47267;48.130;-2.040;2022-09-09T17:39:22;23.50;60.40
61398;DHT22;47267;48.130;-2.040;2022-09-09T17:41:48;23.50;60.30